Portada
METAR-TAF:

METAR-TAF

Aeroports :

Salina Municipal Airport

Salina, Kansas, Estats Units d'Amèrica

latitud: 38-46-48N, longitud: 097-38-39W, altitud: 387 m

Observació

L'informe es va fer fa 46 minuts, a les 04:53 UTC
Vent 12 kt del Sud/Sud-Est
Temperatura 24°C
Humitat 61%
Pressió 1016 hPa
Visibilitat: 16.1 km
Cel clar

METAR: KSLN 200453Z AUTO 15012KT 10SM CLR 24/16 A3001 RMK AO2 PRESFR SLP148 T02440156

Hora: 00:39 (05:39 UTC)

Pronòstic

L'informe es va fer fa 6 hores i 13 minuts, a les 23:26 UTC
Pronòstic vàlid del 20 a les 00 UTC al 20 a les 24 UTC
Vent 9 kt del Sud/Sud-Est
Visibilitat: 10 km
Núvols disperses a una alçada de 10000 ft
A partir de les 20 a les 0600 UTC
Vent 7 kt del Sud/Sud-Est
Visibilitat: 10 km
Núvols disperses a una alçada de 5000 ft
Cel ennuvolat a una alçada de 10000 ft
xàfecs en les proximitats,

TAF: KSLN 192326Z 2000/2024 15009KT P6SM SCT100 FM200600 16007KT P6SM VCSH SCT050 BKN100

Observacions i pronòstics meteorològics de més de 4000 aeroports (METAR i TAF).

Les estacions disponibles són els punts grocs i vermells al mapa.

Posi el ratolí al punt desitjat per veure el nom de l'estació.

Feu clic per veure les observacions i els pronòstics meteorològics.

Per canviar el mapa: feu clic els botons verds amb una creu de color negre per apropar; al botó verd amb un guió per allunyar la imatge; o en les fletxes verdes per a mapes adjacents.


METAR-TAF: